KLM550 OBBI-OKKK
Flight info
| Callsign | KLM550 |
|---|---|
| Flight time | 0h 47m |
| Altitude | 24000 |
| Route | BHR075/12L BHR A453 DEBTI |
| Aircraft | B744/H-SDE3FGHIM1M2RWXY/LB1 |
Departure
| Time | 2026-04-27 16:45 |
|---|---|
| Airport | Bahrain International Airport (OBBI) |
Arrival
| Time | 2026-04-27 17:32 |
|---|---|
| Airport | Kuwait International Airport (OKKK) |
| Time | Latitude | Longitude | Altitude | Speed | Heading |
|---|---|---|---|---|---|
| 2026-04-27 16:20 | 26.26376 | 50.63845 | 20 ft | 0 kts | 212° |
| 2026-04-27 16:33 | 26.26381 | 50.63848 | 20 ft | 2 kts | 212° |
| 2026-04-27 16:33 | 26.26396 | 50.63859 | 20 ft | 3 kts | 216° |
| 2026-04-27 16:34 | 26.26410 | 50.63873 | 20 ft | 3 kts | 230° |
| 2026-04-27 16:34 | 26.26422 | 50.63892 | 20 ft | 3 kts | 244° |
| 2026-04-27 16:34 | 26.26428 | 50.63913 | 20 ft | 3 kts | 258° |
| 2026-04-27 16:34 | 26.26431 | 50.63936 | 20 ft | 3 kts | 271° |
| 2026-04-27 16:35 | 26.26428 | 50.63959 | 20 ft | 3 kts | 287° |
| 2026-04-27 16:35 | 26.26421 | 50.63978 | 20 ft | 0 kts | 301° |
| 2026-04-27 16:36 | 26.26423 | 50.63975 | 20 ft | 1 kts | 304° |
| 2026-04-27 16:37 | 26.26424 | 50.63973 | 20 ft | 0 kts | 308° |
| 2026-04-27 16:37 | 26.26435 | 50.63966 | 20 ft | 7 kts | 345° |
| 2026-04-27 16:37 | 26.26492 | 50.64007 | 20 ft | 7 kts | 21° |
| 2026-04-27 16:37 | 26.26531 | 50.63971 | 20 ft | 11 kts | 303° |
| 2026-04-27 16:38 | 26.26594 | 50.63864 | 20 ft | 12 kts | 303° |
| 2026-04-27 16:38 | 26.26624 | 50.63813 | 20 ft | 11 kts | 303° |
| 2026-04-27 16:38 | 26.26678 | 50.63718 | 20 ft | 10 kts | 303° |
| 2026-04-27 16:38 | 26.26705 | 50.63673 | 20 ft | 10 kts | 303° |
| 2026-04-27 16:39 | 26.26741 | 50.63611 | 20 ft | 9 kts | 303° |
| 2026-04-27 16:39 | 26.26776 | 50.63551 | 20 ft | 9 kts | 303° |
| 2026-04-27 16:39 | 26.26809 | 50.63494 | 20 ft | 8 kts | 303° |
| 2026-04-27 16:39 | 26.26841 | 50.63439 | 20 ft | 9 kts | 301° |
| 2026-04-27 16:40 | 26.26873 | 50.63381 | 20 ft | 8 kts | 301° |
| 2026-04-27 16:40 | 26.26912 | 50.63310 | 20 ft | 8 kts | 301° |
| 2026-04-27 16:40 | 26.26933 | 50.63272 | 20 ft | 12 kts | 301° |
| 2026-04-27 16:40 | 26.26984 | 50.63180 | 20 ft | 14 kts | 302° |
| 2026-04-27 16:41 | 26.27034 | 50.63092 | 20 ft | 13 kts | 302° |
| 2026-04-27 16:41 | 26.27049 | 50.63065 | 20 ft | 13 kts | 302° |
| 2026-04-27 16:41 | 26.27137 | 50.62913 | 20 ft | 11 kts | 303° |
| 2026-04-27 16:41 | 26.27180 | 50.62845 | 20 ft | 10 kts | 308° |
| 2026-04-27 16:42 | 26.27208 | 50.62805 | 20 ft | 10 kts | 306° |
| 2026-04-27 16:42 | 26.27256 | 50.62723 | 20 ft | 9 kts | 302° |
| 2026-04-27 16:42 | 26.27290 | 50.62664 | 20 ft | 9 kts | 302° |
| 2026-04-27 16:42 | 26.27321 | 50.62609 | 20 ft | 8 kts | 302° |
| 2026-04-27 16:43 | 26.27359 | 50.62567 | 20 ft | 8 kts | 360° |
| 2026-04-27 16:43 | 26.27398 | 50.62602 | 20 ft | 3 kts | 41° |
| 2026-04-27 16:43 | 26.27399 | 50.62602 | 20 ft | 0 kts | 41° |
| 2026-04-27 16:44 | 26.27442 | 50.62645 | 20 ft | 17 kts | 41° |
| 2026-04-27 16:44 | 26.27457 | 50.62729 | 20 ft | 17 kts | 124° |
| 2026-04-27 16:44 | 26.27273 | 50.63037 | 20 ft | 90 kts | 121° |
| 2026-04-27 16:44 | 26.26766 | 50.63897 | 119 ft | 167 kts | 123° |
| 2026-04-27 16:45 | 26.26247 | 50.65111 | 1020 ft | 178 kts | 101° |
| 2026-04-27 16:45 | 26.26513 | 50.66412 | 2124 ft | 174 kts | 61° |
| 2026-04-27 16:45 | 26.27472 | 50.67214 | 2792 ft | 182 kts | 23° |
| 2026-04-27 16:45 | 26.28823 | 50.67291 | 3118 ft | 210 kts | 360° |
| 2026-04-27 16:46 | 26.30373 | 50.67381 | 3405 ft | 238 kts | 9° |
| 2026-04-27 16:46 | 26.31512 | 50.67452 | 3513 ft | 259 kts | 355° |
| 2026-04-27 16:46 | 26.33308 | 50.66829 | 3985 ft | 277 kts | 338° |
| 2026-04-27 16:46 | 26.35096 | 50.65989 | 5012 ft | 280 kts | 337° |
| 2026-04-27 16:47 | 26.36886 | 50.65119 | 6156 ft | 282 kts | 335° |
| 2026-04-27 16:47 | 26.39293 | 50.63926 | 6885 ft | 288 kts | 334° |
| 2026-04-27 16:47 | 26.41130 | 50.63016 | 7000 ft | 288 kts | 334° |
| 2026-04-27 16:47 | 26.42367 | 50.62405 | 7034 ft | 288 kts | 334° |
| 2026-04-27 16:48 | 26.44188 | 50.61505 | 7688 ft | 290 kts | 334° |
| 2026-04-27 16:48 | 26.46022 | 50.60597 | 9015 ft | 289 kts | 334° |
| 2026-04-27 16:48 | 26.47875 | 50.59676 | 10074 ft | 294 kts | 334° |
| 2026-04-27 16:49 | 26.51867 | 50.57691 | 11386 ft | 343 kts | 333° |
| 2026-04-27 16:49 | 26.54170 | 50.56546 | 11645 ft | 381 kts | 333° |
| 2026-04-27 16:49 | 26.56704 | 50.55282 | 11888 ft | 417 kts | 333° |
| 2026-04-27 16:49 | 26.59436 | 50.53919 | 12515 ft | 439 kts | 333° |
| 2026-04-27 16:50 | 26.62208 | 50.52538 | 13839 ft | 443 kts | 333° |
| 2026-04-27 16:50 | 26.65075 | 50.51107 | 15182 ft | 450 kts | 333° |
| 2026-04-27 16:50 | 26.67900 | 50.49682 | 16415 ft | 456 kts | 331° |
| 2026-04-27 16:50 | 26.70625 | 50.47832 | 17647 ft | 460 kts | 323° |
| 2026-04-27 16:51 | 26.73179 | 50.45622 | 18828 ft | 465 kts | 316° |
| 2026-04-27 16:51 | 26.75518 | 50.43162 | 20183 ft | 464 kts | 312° |
| 2026-04-27 16:51 | 26.77827 | 50.40594 | 21219 ft | 472 kts | 312° |
| 2026-04-27 16:51 | 26.80228 | 50.38032 | 22299 ft | 476 kts | 313° |
| 2026-04-27 16:52 | 26.82658 | 50.35488 | 23257 ft | 480 kts | 313° |
| 2026-04-27 16:52 | 26.84780 | 50.33256 | 23670 ft | 483 kts | 312° |
| 2026-04-27 16:52 | 26.87258 | 50.30635 | 23756 ft | 484 kts | 312° |
| 2026-04-27 16:52 | 26.89708 | 50.28039 | 23758 ft | 484 kts | 311° |
| 2026-04-27 16:53 | 26.92149 | 50.25448 | 23770 ft | 485 kts | 312° |
| 2026-04-27 16:53 | 26.94594 | 50.22850 | 23770 ft | 485 kts | 312° |
| 2026-04-27 16:53 | 26.97042 | 50.20248 | 23770 ft | 485 kts | 312° |
| 2026-04-27 16:53 | 26.99493 | 50.17639 | 23773 ft | 485 kts | 311° |
| 2026-04-27 16:54 | 27.01945 | 50.15033 | 23770 ft | 486 kts | 312° |
| 2026-04-27 16:54 | 27.04380 | 50.12415 | 23769 ft | 486 kts | 310° |
| 2026-04-27 16:54 | 27.06657 | 50.09679 | 23752 ft | 485 kts | 307° |
| 2026-04-27 16:54 | 27.08855 | 50.06818 | 23750 ft | 483 kts | 306° |
| 2026-04-27 16:55 | 27.11001 | 50.03928 | 23749 ft | 483 kts | 305° |
| 2026-04-27 16:55 | 27.13164 | 50.01032 | 23749 ft | 483 kts | 306° |
| 2026-04-27 16:55 | 27.15335 | 49.98145 | 23749 ft | 483 kts | 306° |
| 2026-04-27 16:55 | 27.17501 | 49.95277 | 23750 ft | 482 kts | 306° |
| 2026-04-27 16:56 | 27.19672 | 49.92408 | 23749 ft | 482 kts | 306° |
| 2026-04-27 16:56 | 27.21847 | 49.89534 | 23751 ft | 483 kts | 306° |
| 2026-04-27 16:56 | 27.24018 | 49.86667 | 23753 ft | 483 kts | 306° |
| 2026-04-27 16:56 | 27.26198 | 49.83787 | 23753 ft | 483 kts | 306° |
| 2026-04-27 16:57 | 27.28354 | 49.80960 | 23755 ft | 484 kts | 306° |
| 2026-04-27 16:57 | 27.30551 | 49.78099 | 23762 ft | 484 kts | 306° |
| 2026-04-27 16:57 | 27.32738 | 49.75218 | 23772 ft | 484 kts | 306° |
| 2026-04-27 16:57 | 27.34919 | 49.72336 | 23768 ft | 484 kts | 306° |
| 2026-04-27 16:58 | 27.37088 | 49.69460 | 23774 ft | 484 kts | 306° |
| 2026-04-27 16:58 | 27.39275 | 49.66558 | 23773 ft | 484 kts | 306° |
| 2026-04-27 16:58 | 27.41447 | 49.63674 | 23774 ft | 484 kts | 306° |
| 2026-04-27 16:58 | 27.43603 | 49.60809 | 23773 ft | 484 kts | 306° |
| 2026-04-27 16:59 | 27.45783 | 49.57916 | 23778 ft | 484 kts | 306° |
| 2026-04-27 16:59 | 27.48024 | 49.55103 | 23778 ft | 486 kts | 310° |
| 2026-04-27 16:59 | 27.50518 | 49.52526 | 23777 ft | 489 kts | 314° |
| 2026-04-27 16:59 | 27.53169 | 49.50072 | 23776 ft | 492 kts | 316° |
| 2026-04-27 17:00 | 27.57662 | 49.46139 | 23779 ft | 493 kts | 317° |
| 2026-04-27 17:00 | 27.61274 | 49.42931 | 23785 ft | 493 kts | 316° |
| 2026-04-27 17:00 | 27.63938 | 49.40563 | 23786 ft | 493 kts | 316° |
| 2026-04-27 17:01 | 27.66625 | 49.38164 | 23788 ft | 493 kts | 316° |
| 2026-04-27 17:01 | 27.69306 | 49.35753 | 23789 ft | 492 kts | 316° |
| 2026-04-27 17:01 | 27.71980 | 49.33342 | 23790 ft | 492 kts | 316° |
| 2026-04-27 17:01 | 27.74659 | 49.30922 | 23791 ft | 492 kts | 316° |
| 2026-04-27 17:02 | 27.77324 | 49.28511 | 23794 ft | 492 kts | 316° |
| 2026-04-27 17:02 | 27.79992 | 49.26098 | 23794 ft | 492 kts | 316° |
| 2026-04-27 17:02 | 27.82629 | 49.23711 | 23794 ft | 492 kts | 316° |
| 2026-04-27 17:02 | 27.85338 | 49.21261 | 23768 ft | 492 kts | 316° |
| 2026-04-27 17:03 | 27.88056 | 49.18992 | 23765 ft | 493 kts | 321° |
| 2026-04-27 17:03 | 27.90961 | 49.16926 | 23763 ft | 496 kts | 323° |
| 2026-04-27 17:03 | 27.93956 | 49.14967 | 23763 ft | 497 kts | 325° |
| 2026-04-27 17:03 | 27.96977 | 49.13048 | 23760 ft | 498 kts | 325° |
| 2026-04-27 17:04 | 27.99985 | 49.11109 | 23762 ft | 497 kts | 324° |
| 2026-04-27 17:04 | 28.02986 | 49.09169 | 23763 ft | 499 kts | 325° |
| 2026-04-27 17:04 | 28.05991 | 49.07211 | 23763 ft | 499 kts | 324° |
| 2026-04-27 17:04 | 28.09014 | 49.05231 | 23762 ft | 499 kts | 324° |
| 2026-04-27 17:05 | 28.12006 | 49.03266 | 23761 ft | 498 kts | 324° |
| 2026-04-27 17:05 | 28.14960 | 49.01322 | 23760 ft | 498 kts | 324° |
| 2026-04-27 17:05 | 28.17965 | 48.99343 | 23760 ft | 498 kts | 324° |
| 2026-04-27 17:05 | 28.20952 | 48.97375 | 23761 ft | 498 kts | 324° |
| 2026-04-27 17:06 | 28.23917 | 48.95422 | 23687 ft | 483 kts | 324° |
| 2026-04-27 17:06 | 28.26758 | 48.93551 | 23061 ft | 459 kts | 324° |
| 2026-04-27 17:06 | 28.29449 | 48.91773 | 22043 ft | 442 kts | 324° |
| 2026-04-27 17:06 | 28.32118 | 48.90012 | 20735 ft | 447 kts | 324° |
| 2026-04-27 17:07 | 28.34814 | 48.88227 | 20015 ft | 459 kts | 325° |
| 2026-04-27 17:07 | 28.37574 | 48.86394 | 19727 ft | 459 kts | 325° |
| 2026-04-27 17:07 | 28.40325 | 48.84561 | 19398 ft | 460 kts | 325° |
| 2026-04-27 17:07 | 28.43085 | 48.82721 | 19073 ft | 460 kts | 325° |
| 2026-04-27 17:08 | 28.45842 | 48.80880 | 18832 ft | 459 kts | 326° |
| 2026-04-27 17:08 | 28.48592 | 48.79048 | 18632 ft | 457 kts | 326° |
| 2026-04-27 17:08 | 28.51295 | 48.77241 | 18352 ft | 457 kts | 326° |
| 2026-04-27 17:08 | 28.54072 | 48.75390 | 18103 ft | 456 kts | 326° |
| 2026-04-27 17:09 | 28.56634 | 48.73336 | 17921 ft | 448 kts | 315° |
| 2026-04-27 17:09 | 28.58825 | 48.70831 | 17676 ft | 445 kts | 309° |
| 2026-04-27 17:09 | 28.60830 | 48.68208 | 17451 ft | 443 kts | 306° |
| 2026-04-27 17:09 | 28.62714 | 48.65442 | 17277 ft | 441 kts | 304° |
| 2026-04-27 17:10 | 28.64512 | 48.62651 | 17264 ft | 431 kts | 303° |
| 2026-04-27 17:10 | 28.66286 | 48.59909 | 17178 ft | 430 kts | 304° |
| 2026-04-27 17:10 | 28.68072 | 48.57205 | 17026 ft | 421 kts | 304° |
| 2026-04-27 17:10 | 28.69797 | 48.54594 | 16706 ft | 404 kts | 304° |
| 2026-04-27 17:11 | 28.71430 | 48.52132 | 16507 ft | 384 kts | 304° |
| 2026-04-27 17:11 | 28.75177 | 48.48169 | 16272 ft | 352 kts | 322° |
| 2026-04-27 17:11 | 28.77163 | 48.46727 | 16175 ft | 337 kts | 325° |
| 2026-04-27 17:12 | 28.81133 | 48.44232 | 15653 ft | 319 kts | 328° |
| 2026-04-27 17:12 | 28.83101 | 48.43043 | 15067 ft | 320 kts | 328° |
| 2026-04-27 17:12 | 28.85050 | 48.41852 | 14718 ft | 317 kts | 328° |
| 2026-04-27 17:13 | 28.86991 | 48.40655 | 14617 ft | 317 kts | 328° |
| 2026-04-27 17:13 | 28.88936 | 48.39451 | 14405 ft | 318 kts | 328° |
| 2026-04-27 17:13 | 28.90853 | 48.38261 | 14192 ft | 317 kts | 328° |
| 2026-04-27 17:13 | 28.92785 | 48.37061 | 13976 ft | 316 kts | 328° |
| 2026-04-27 17:14 | 28.94716 | 48.35860 | 13758 ft | 316 kts | 328° |
| 2026-04-27 17:14 | 28.96635 | 48.34667 | 13545 ft | 315 kts | 328° |
| 2026-04-27 17:14 | 28.98562 | 48.33468 | 13327 ft | 314 kts | 329° |
| 2026-04-27 17:14 | 29.00475 | 48.32278 | 13116 ft | 313 kts | 329° |
| 2026-04-27 17:15 | 29.02380 | 48.31094 | 12865 ft | 313 kts | 329° |
| 2026-04-27 17:15 | 29.04274 | 48.29916 | 12594 ft | 311 kts | 329° |
| 2026-04-27 17:15 | 29.06163 | 48.28735 | 12317 ft | 310 kts | 329° |
| 2026-04-27 17:15 | 29.08056 | 48.27552 | 12039 ft | 309 kts | 329° |
| 2026-04-27 17:16 | 29.09947 | 48.26370 | 11758 ft | 308 kts | 329° |
| 2026-04-27 17:16 | 29.11809 | 48.25206 | 11479 ft | 302 kts | 329° |
| 2026-04-27 17:16 | 29.13625 | 48.24069 | 11213 ft | 294 kts | 329° |
| 2026-04-27 17:16 | 29.15402 | 48.22958 | 10939 ft | 288 kts | 330° |
| 2026-04-27 17:17 | 29.17157 | 48.21861 | 10444 ft | 291 kts | 330° |
| 2026-04-27 17:17 | 29.18937 | 48.20749 | 9946 ft | 294 kts | 330° |
| 2026-04-27 17:17 | 29.20735 | 48.19623 | 9450 ft | 296 kts | 330° |
| 2026-04-27 17:18 | 29.24257 | 48.17417 | 8781 ft | 280 kts | 330° |
| 2026-04-27 17:18 | 29.25968 | 48.16343 | 8103 ft | 283 kts | 330° |
| 2026-04-27 17:18 | 29.27701 | 48.15259 | 7564 ft | 281 kts | 330° |
| 2026-04-27 17:18 | 29.29396 | 48.14194 | 7132 ft | 275 kts | 330° |
| 2026-04-27 17:19 | 29.31022 | 48.13181 | 6996 ft | 257 kts | 330° |
| 2026-04-27 17:19 | 29.32555 | 48.12221 | 6743 ft | 246 kts | 329° |
| 2026-04-27 17:19 | 29.34034 | 48.11326 | 6390 ft | 243 kts | 332° |
| 2026-04-27 17:19 | 29.35564 | 48.10504 | 6063 ft | 243 kts | 334° |
| 2026-04-27 17:20 | 29.37100 | 48.09704 | 5799 ft | 240 kts | 334° |
| 2026-04-27 17:20 | 29.38617 | 48.08916 | 5508 ft | 240 kts | 334° |
| 2026-04-27 17:20 | 29.40133 | 48.08135 | 5209 ft | 239 kts | 334° |
| 2026-04-27 17:20 | 29.41654 | 48.07355 | 4894 ft | 239 kts | 334° |
| 2026-04-27 17:21 | 29.43167 | 48.06587 | 4648 ft | 236 kts | 334° |
| 2026-04-27 17:21 | 29.44670 | 48.05827 | 4347 ft | 236 kts | 334° |
| 2026-04-27 17:21 | 29.46153 | 48.05087 | 4104 ft | 233 kts | 334° |
| 2026-04-27 17:21 | 29.47636 | 48.04352 | 4061 ft | 233 kts | 334° |
| 2026-04-27 17:22 | 29.49154 | 48.03601 | 3869 ft | 235 kts | 334° |
| 2026-04-27 17:22 | 29.50617 | 48.02826 | 3675 ft | 235 kts | 326° |
| 2026-04-27 17:22 | 29.51859 | 48.01644 | 3472 ft | 230 kts | 308° |
| 2026-04-27 17:22 | 29.52701 | 48.00129 | 3268 ft | 223 kts | 290° |
| 2026-04-27 17:23 | 29.53080 | 47.98443 | 3068 ft | 215 kts | 271° |
| 2026-04-27 17:23 | 29.52972 | 47.96756 | 2875 ft | 208 kts | 253° |
| 2026-04-27 17:23 | 29.52551 | 47.95197 | 2693 ft | 203 kts | 246° |
| 2026-04-27 17:23 | 29.52060 | 47.93694 | 2568 ft | 201 kts | 244° |
| 2026-04-27 17:24 | 29.51542 | 47.92200 | 2497 ft | 202 kts | 244° |
| 2026-04-27 17:24 | 29.51029 | 47.90727 | 2483 ft | 199 kts | 244° |
| 2026-04-27 17:24 | 29.50542 | 47.89316 | 2466 ft | 184 kts | 244° |
| 2026-04-27 17:24 | 29.50083 | 47.87963 | 2479 ft | 182 kts | 244° |
| 2026-04-27 17:25 | 29.49613 | 47.86604 | 2486 ft | 182 kts | 243° |
| 2026-04-27 17:25 | 29.48926 | 47.85420 | 2483 ft | 179 kts | 217° |
| 2026-04-27 17:25 | 29.47806 | 47.84846 | 2484 ft | 176 kts | 199° |
| 2026-04-27 17:25 | 29.46608 | 47.84538 | 2482 ft | 177 kts | 186° |
| 2026-04-27 17:26 | 29.45411 | 47.84741 | 2497 ft | 176 kts | 168° |
| 2026-04-27 17:26 | 29.44276 | 47.85253 | 2492 ft | 176 kts | 161° |
| 2026-04-27 17:26 | 29.43171 | 47.85874 | 2481 ft | 177 kts | 158° |
| 2026-04-27 17:26 | 29.42065 | 47.86511 | 2497 ft | 178 kts | 158° |
| 2026-04-27 17:27 | 29.40955 | 47.87128 | 2487 ft | 178 kts | 158° |
| 2026-04-27 17:27 | 29.39837 | 47.87737 | 2486 ft | 177 kts | 158° |
| 2026-04-27 17:27 | 29.38722 | 47.88337 | 2486 ft | 178 kts | 158° |
| 2026-04-27 17:27 | 29.37595 | 47.88941 | 2486 ft | 178 kts | 158° |
| 2026-04-27 17:28 | 29.36527 | 47.89511 | 2485 ft | 163 kts | 159° |
| 2026-04-27 17:28 | 29.35561 | 47.90026 | 2465 ft | 142 kts | 159° |
| 2026-04-27 17:28 | 29.33832 | 47.90948 | 2330 ft | 135 kts | 159° |
| 2026-04-27 17:29 | 29.32997 | 47.91393 | 2149 ft | 130 kts | 160° |
| 2026-04-27 17:29 | 29.32180 | 47.91828 | 1965 ft | 129 kts | 159° |
| 2026-04-27 17:29 | 29.31362 | 47.92263 | 1778 ft | 129 kts | 159° |
| 2026-04-27 17:29 | 29.30561 | 47.92689 | 1605 ft | 126 kts | 159° |
| 2026-04-27 17:30 | 29.29771 | 47.93109 | 1436 ft | 129 kts | 159° |
| 2026-04-27 17:30 | 29.28131 | 47.93982 | 1090 ft | 129 kts | 159° |
| 2026-04-27 17:30 | 29.27322 | 47.94413 | 920 ft | 129 kts | 159° |
| 2026-04-27 17:31 | 29.26505 | 47.94843 | 770 ft | 129 kts | 160° |
| 2026-04-27 17:31 | 29.25686 | 47.95293 | 537 ft | 130 kts | 156° |
| 2026-04-27 17:31 | 29.24890 | 47.95756 | 355 ft | 128 kts | 162° |
| 2026-04-27 17:31 | 29.24080 | 47.96142 | 252 ft | 126 kts | 154° |
| 2026-04-27 17:32 | 29.23303 | 47.96556 | 221 ft | 114 kts | 158° |
| 2026-04-27 17:32 | 29.22496 | 47.96975 | 220 ft | 21 kts | 153° |
| 2026-04-27 17:32 | 29.22417 | 47.97019 | 220 ft | 26 kts | 155° |
| 2026-04-27 17:33 | 29.22211 | 47.97128 | 220 ft | 32 kts | 155° |
| 2026-04-27 17:33 | 29.22019 | 47.97234 | 220 ft | 29 kts | 143° |
| 2026-04-27 17:33 | 29.21931 | 47.97404 | 220 ft | 21 kts | 107° |
| 2026-04-27 17:33 | 29.21927 | 47.97487 | 220 ft | 1 kts | 48° |
| 2026-04-27 17:34 | 29.21934 | 47.97490 | 220 ft | 1 kts | 19° |
| 2026-04-27 17:34 | 29.21940 | 47.97491 | 220 ft | 1 kts | 8° |
| 2026-04-27 17:34 | 29.21990 | 47.97496 | 220 ft | 21 kts | 354° |
| 2026-04-27 17:34 | 29.22124 | 47.97429 | 220 ft | 20 kts | 332° |
| 2026-04-27 17:35 | 29.22246 | 47.97360 | 220 ft | 19 kts | 335° |
| 2026-04-27 17:35 | 29.22363 | 47.97298 | 220 ft | 18 kts | 335° |
| 2026-04-27 17:35 | 29.22475 | 47.97237 | 220 ft | 17 kts | 334° |
| 2026-04-27 17:35 | 29.22579 | 47.97180 | 220 ft | 16 kts | 334° |
| 2026-04-27 17:36 | 29.22679 | 47.97125 | 220 ft | 15 kts | 334° |
| 2026-04-27 17:36 | 29.22772 | 47.97075 | 220 ft | 14 kts | 335° |
| 2026-04-27 17:36 | 29.22860 | 47.97029 | 220 ft | 13 kts | 335° |
| 2026-04-27 17:36 | 29.22942 | 47.96986 | 220 ft | 13 kts | 335° |
| 2026-04-27 17:37 | 29.23019 | 47.96945 | 220 ft | 12 kts | 335° |
| 2026-04-27 17:37 | 29.23092 | 47.96907 | 220 ft | 11 kts | 335° |
| 2026-04-27 17:37 | 29.23159 | 47.96871 | 220 ft | 10 kts | 334° |
| 2026-04-27 17:37 | 29.23222 | 47.96837 | 220 ft | 10 kts | 334° |
| 2026-04-27 17:38 | 29.23281 | 47.96805 | 220 ft | 9 kts | 334° |
| 2026-04-27 17:38 | 29.23338 | 47.96774 | 220 ft | 9 kts | 334° |
| 2026-04-27 17:38 | 29.23391 | 47.96746 | 220 ft | 8 kts | 334° |
| 2026-04-27 17:38 | 29.23440 | 47.96719 | 220 ft | 8 kts | 336° |
| 2026-04-27 17:39 | 29.23488 | 47.96695 | 220 ft | 7 kts | 336° |
| 2026-04-27 17:39 | 29.23533 | 47.96673 | 220 ft | 7 kts | 336° |
| 2026-04-27 17:39 | 29.23574 | 47.96653 | 220 ft | 6 kts | 336° |
| 2026-04-27 17:39 | 29.23613 | 47.96633 | 220 ft | 6 kts | 336° |
| 2026-04-27 17:40 | 29.23649 | 47.96615 | 220 ft | 5 kts | 336° |
| 2026-04-27 17:40 | 29.23682 | 47.96598 | 220 ft | 5 kts | 336° |
| 2026-04-27 17:40 | 29.23713 | 47.96582 | 220 ft | 5 kts | 336° |
| 2026-04-27 17:40 | 29.23742 | 47.96568 | 220 ft | 4 kts | 336° |
| 2026-04-27 17:41 | 29.23812 | 47.96532 | 220 ft | 13 kts | 336° |
| 2026-04-27 17:41 | 29.23893 | 47.96491 | 220 ft | 12 kts | 336° |
| 2026-04-27 17:41 | 29.23969 | 47.96450 | 220 ft | 12 kts | 333° |
| 2026-04-27 17:41 | 29.24039 | 47.96410 | 220 ft | 11 kts | 333° |
| 2026-04-27 17:42 | 29.24107 | 47.96383 | 220 ft | 10 kts | 25° |
| 2026-04-27 17:42 | 29.24140 | 47.96451 | 220 ft | 10 kts | 75° |
| 2026-04-27 17:42 | 29.24163 | 47.96522 | 220 ft | 9 kts | 61° |
| 2026-04-27 17:42 | 29.24215 | 47.96539 | 220 ft | 7 kts | 332° |
| 2026-04-27 17:43 | 29.24217 | 47.96538 | 220 ft | 0 kts | 333° |